EJU49CL LIEO-LIRN
Flight info
| Callsign | EJU49CL |
|---|---|
| Flight time | 0h 43m |
| Altitude | 36000 |
| Route | ATNET7K/05 ATNET DCT UNIXO/N0448F350 DCT PEVIR/N0380F180 M725 SOR |
| Aircraft | A320/M-SDE3FGHIRWY/LB1 |
Departure
| Time | 2026-04-28 19:31 |
|---|---|
| Airport | Olbia Costa Smeralda Airport (LIEO) |
Arrival
| Time | 2026-04-28 20:14 |
|---|---|
| Airport | Naples International Airport (LIRN) |
| Time | Latitude | Longitude | Altitude | Speed | Heading |
|---|---|---|---|---|---|
| 2026-04-28 18:56 | 40.90250 | 9.51659 | 24 ft | 0 kts | 325° |
| 2026-04-28 19:17 | 40.90244 | 9.51664 | 27 ft | 2 kts | 322° |
| 2026-04-28 19:17 | 40.90231 | 9.51677 | 23 ft | 2 kts | 322° |
| 2026-04-28 19:17 | 40.90218 | 9.51690 | 33 ft | 2 kts | 320° |
| 2026-04-28 19:18 | 40.90206 | 9.51705 | 32 ft | 2 kts | 302° |
| 2026-04-28 19:18 | 40.90203 | 9.51724 | 30 ft | 1 kts | 233° |
| 2026-04-28 19:18 | 40.90205 | 9.51728 | 30 ft | 0 kts | 238° |
| 2026-04-28 19:21 | 40.90196 | 9.51711 | 33 ft | 4 kts | 235° |
| 2026-04-28 19:21 | 40.90179 | 9.51679 | 28 ft | 4 kts | 235° |
| 2026-04-28 19:21 | 40.90160 | 9.51643 | 34 ft | 5 kts | 235° |
| 2026-04-28 19:21 | 40.90141 | 9.51608 | 34 ft | 6 kts | 235° |
| 2026-04-28 19:22 | 40.90093 | 9.51515 | 34 ft | 14 kts | 236° |
| 2026-04-28 19:22 | 40.90047 | 9.51484 | 34 ft | 12 kts | 160° |
| 2026-04-28 19:22 | 40.89956 | 9.51512 | 34 ft | 10 kts | 199° |
| 2026-04-28 19:22 | 40.89899 | 9.51433 | 34 ft | 13 kts | 235° |
| 2026-04-28 19:23 | 40.89849 | 9.51340 | 34 ft | 12 kts | 235° |
| 2026-04-28 19:23 | 40.89805 | 9.51256 | 34 ft | 11 kts | 236° |
| 2026-04-28 19:23 | 40.89750 | 9.51149 | 34 ft | 17 kts | 236° |
| 2026-04-28 19:23 | 40.89684 | 9.51023 | 33 ft | 16 kts | 235° |
| 2026-04-28 19:24 | 40.89623 | 9.50909 | 34 ft | 14 kts | 235° |
| 2026-04-28 19:24 | 40.89569 | 9.50805 | 34 ft | 13 kts | 235° |
| 2026-04-28 19:24 | 40.89501 | 9.50675 | 34 ft | 20 kts | 235° |
| 2026-04-28 19:24 | 40.89423 | 9.50528 | 34 ft | 18 kts | 235° |
| 2026-04-28 19:25 | 40.89386 | 9.50460 | 34 ft | 0 kts | 214° |
| 2026-04-28 19:29 | 40.89352 | 9.50441 | 34 ft | 12 kts | 195° |
| 2026-04-28 19:29 | 40.89290 | 9.50461 | 34 ft | 17 kts | 137° |
| 2026-04-28 19:29 | 40.89281 | 9.50644 | 34 ft | 0 kts | 54° |
| 2026-04-28 19:30 | 40.89282 | 9.50645 | 34 ft | 2 kts | 54° |
| 2026-04-28 19:30 | 40.89397 | 9.50865 | 33 ft | 67 kts | 55° |
| 2026-04-28 19:30 | 40.89791 | 9.51618 | 34 ft | 129 kts | 54° |
| 2026-04-28 19:30 | 40.90366 | 9.52726 | 363 ft | 149 kts | 57° |
| 2026-04-28 19:31 | 40.90953 | 9.53868 | 1007 ft | 151 kts | 58° |
| 2026-04-28 19:31 | 40.91564 | 9.55024 | 1545 ft | 162 kts | 61° |
| 2026-04-28 19:31 | 40.92250 | 9.56326 | 1925 ft | 184 kts | 59° |
| 2026-04-28 19:31 | 40.93023 | 9.57793 | 2301 ft | 205 kts | 59° |
| 2026-04-28 19:32 | 40.93880 | 9.59410 | 2610 ft | 226 kts | 58° |
| 2026-04-28 19:32 | 40.94834 | 9.61202 | 3108 ft | 246 kts | 57° |
| 2026-04-28 19:32 | 40.95819 | 9.63044 | 3968 ft | 251 kts | 57° |
| 2026-04-28 19:32 | 40.96827 | 9.64961 | 4702 ft | 255 kts | 60° |
| 2026-04-28 19:33 | 40.97453 | 9.67178 | 5218 ft | 263 kts | 83° |
| 2026-04-28 19:33 | 40.97322 | 9.69616 | 5923 ft | 271 kts | 110° |
| 2026-04-28 19:33 | 40.96465 | 9.71815 | 6775 ft | 275 kts | 123° |
| 2026-04-28 19:33 | 40.95448 | 9.73987 | 7653 ft | 280 kts | 123° |
| 2026-04-28 19:34 | 40.94397 | 9.76187 | 8530 ft | 285 kts | 124° |
| 2026-04-28 19:34 | 40.93326 | 9.78420 | 9407 ft | 291 kts | 123° |
| 2026-04-28 19:34 | 40.92227 | 9.80713 | 9861 ft | 297 kts | 125° |
| 2026-04-28 19:34 | 40.91120 | 9.83026 | 9986 ft | 303 kts | 124° |
| 2026-04-28 19:35 | 40.89929 | 9.85509 | 10014 ft | 336 kts | 125° |
| 2026-04-28 19:35 | 40.88653 | 9.88176 | 10020 ft | 347 kts | 125° |
| 2026-04-28 19:35 | 40.87361 | 9.90887 | 10028 ft | 349 kts | 124° |
| 2026-04-28 19:35 | 40.86070 | 9.93603 | 10023 ft | 350 kts | 124° |
| 2026-04-28 19:36 | 40.84775 | 9.96326 | 10026 ft | 350 kts | 124° |
| 2026-04-28 19:36 | 40.83480 | 9.99048 | 10052 ft | 352 kts | 124° |
| 2026-04-28 19:36 | 40.82159 | 10.01813 | 10750 ft | 356 kts | 124° |
| 2026-04-28 19:36 | 40.80832 | 10.04588 | 11602 ft | 359 kts | 123° |
| 2026-04-28 19:37 | 40.79507 | 10.07351 | 12392 ft | 363 kts | 124° |
| 2026-04-28 19:37 | 40.78597 | 10.09267 | 12904 ft | 366 kts | 123° |
| 2026-04-28 19:37 | 40.77221 | 10.13386 | 13863 ft | 376 kts | 108° |
| 2026-04-28 19:37 | 40.76693 | 10.16795 | 14505 ft | 382 kts | 97° |
| 2026-04-28 19:38 | 40.76625 | 10.20319 | 15214 ft | 386 kts | 90° |
| 2026-04-28 19:38 | 40.76688 | 10.23873 | 15882 ft | 389 kts | 89° |
| 2026-04-28 19:38 | 40.76741 | 10.27458 | 16547 ft | 393 kts | 90° |
| 2026-04-28 19:38 | 40.76788 | 10.31075 | 17231 ft | 396 kts | 90° |
| 2026-04-28 19:39 | 40.76833 | 10.34729 | 17818 ft | 401 kts | 90° |
| 2026-04-28 19:39 | 40.76879 | 10.38411 | 18342 ft | 403 kts | 90° |
| 2026-04-28 19:39 | 40.76925 | 10.42120 | 18931 ft | 406 kts | 90° |
| 2026-04-28 19:39 | 40.76968 | 10.45863 | 19483 ft | 410 kts | 90° |
| 2026-04-28 19:40 | 40.77012 | 10.49642 | 20078 ft | 413 kts | 90° |
| 2026-04-28 19:40 | 40.77056 | 10.53447 | 20646 ft | 417 kts | 90° |
| 2026-04-28 19:40 | 40.77099 | 10.57292 | 21192 ft | 420 kts | 90° |
| 2026-04-28 19:40 | 40.77141 | 10.61157 | 21789 ft | 422 kts | 89° |
| 2026-04-28 19:41 | 40.77184 | 10.65043 | 22303 ft | 426 kts | 89° |
| 2026-04-28 19:41 | 40.77226 | 10.68963 | 22836 ft | 428 kts | 89° |
| 2026-04-28 19:41 | 40.77266 | 10.72904 | 23355 ft | 431 kts | 89° |
| 2026-04-28 19:41 | 40.77303 | 10.76878 | 23798 ft | 435 kts | 89° |
| 2026-04-28 19:42 | 40.77337 | 10.80876 | 24192 ft | 437 kts | 89° |
| 2026-04-28 19:42 | 40.77372 | 10.84894 | 24587 ft | 440 kts | 89° |
| 2026-04-28 19:42 | 40.77395 | 10.87563 | 24848 ft | 441 kts | 89° |
| 2026-04-28 19:43 | 40.77313 | 10.91712 | 25670 ft | 430 kts | 93° |
| 2026-04-28 19:43 | 40.77226 | 10.95646 | 25812 ft | 440 kts | 90° |
| 2026-04-28 19:43 | 40.77265 | 10.99719 | 26021 ft | 447 kts | 88° |
| 2026-04-28 19:44 | 40.77373 | 11.03836 | 26350 ft | 450 kts | 88° |
| 2026-04-28 19:44 | 40.77492 | 11.07974 | 26701 ft | 453 kts | 88° |
| 2026-04-28 19:44 | 40.77589 | 11.12139 | 27059 ft | 455 kts | 88° |
| 2026-04-28 19:44 | 40.77651 | 11.16323 | 27404 ft | 458 kts | 89° |
| 2026-04-28 19:45 | 40.77683 | 11.20531 | 27745 ft | 460 kts | 90° |
| 2026-04-28 19:45 | 40.77693 | 11.24759 | 28073 ft | 462 kts | 90° |
| 2026-04-28 19:45 | 40.77694 | 11.29011 | 28390 ft | 464 kts | 90° |
| 2026-04-28 19:45 | 40.77693 | 11.33285 | 28704 ft | 466 kts | 90° |
| 2026-04-28 19:46 | 40.77700 | 11.37570 | 29003 ft | 468 kts | 89° |
| 2026-04-28 19:46 | 40.77716 | 11.41877 | 29287 ft | 470 kts | 89° |
| 2026-04-28 19:46 | 40.77736 | 11.46203 | 29569 ft | 473 kts | 89° |
| 2026-04-28 19:46 | 40.77760 | 11.50494 | 29812 ft | 475 kts | 89° |
| 2026-04-28 19:47 | 40.77781 | 11.54916 | 30068 ft | 476 kts | 89° |
| 2026-04-28 19:47 | 40.77799 | 11.59226 | 30360 ft | 476 kts | 89° |
| 2026-04-28 19:47 | 40.77811 | 11.63591 | 30657 ft | 475 kts | 90° |
| 2026-04-28 19:47 | 40.77815 | 11.67955 | 30947 ft | 475 kts | 89° |
| 2026-04-28 19:48 | 40.77816 | 11.72309 | 31232 ft | 475 kts | 89° |
| 2026-04-28 19:48 | 40.77814 | 11.76656 | 31523 ft | 474 kts | 89° |
| 2026-04-28 19:48 | 40.77811 | 11.81011 | 31815 ft | 474 kts | 89° |
| 2026-04-28 19:48 | 40.77810 | 11.85359 | 32111 ft | 474 kts | 89° |
| 2026-04-28 19:49 | 40.77697 | 11.89704 | 32389 ft | 474 kts | 93° |
| 2026-04-28 19:49 | 40.77450 | 11.94041 | 32669 ft | 474 kts | 94° |
| 2026-04-28 19:49 | 40.77154 | 11.98371 | 32956 ft | 474 kts | 95° |
| 2026-04-28 19:49 | 40.76832 | 12.02697 | 33245 ft | 474 kts | 95° |
| 2026-04-28 19:50 | 40.76175 | 12.11316 | 33841 ft | 471 kts | 95° |
| 2026-04-28 19:50 | 40.75853 | 12.15616 | 34138 ft | 470 kts | 95° |
| 2026-04-28 19:50 | 40.75544 | 12.19855 | 34388 ft | 470 kts | 95° |
| 2026-04-28 19:51 | 40.75235 | 12.24148 | 34629 ft | 471 kts | 95° |
| 2026-04-28 19:51 | 40.74929 | 12.28442 | 34768 ft | 470 kts | 95° |
| 2026-04-28 19:51 | 40.74624 | 12.32722 | 34144 ft | 468 kts | 95° |
| 2026-04-28 19:51 | 40.74316 | 12.36992 | 33453 ft | 467 kts | 95° |
| 2026-04-28 19:52 | 40.74003 | 12.41271 | 33110 ft | 468 kts | 95° |
| 2026-04-28 19:52 | 40.73688 | 12.45541 | 32670 ft | 469 kts | 95° |
| 2026-04-28 19:52 | 40.73372 | 12.49835 | 32408 ft | 472 kts | 95° |
| 2026-04-28 19:52 | 40.73051 | 12.54149 | 32132 ft | 473 kts | 95° |
| 2026-04-28 19:53 | 40.72728 | 12.58468 | 31802 ft | 474 kts | 95° |
| 2026-04-28 19:53 | 40.72403 | 12.62789 | 31450 ft | 474 kts | 95° |
| 2026-04-28 19:53 | 40.72076 | 12.67117 | 31103 ft | 474 kts | 95° |
| 2026-04-28 19:53 | 40.71749 | 12.71444 | 30759 ft | 475 kts | 95° |
| 2026-04-28 19:54 | 40.71419 | 12.75785 | 30422 ft | 475 kts | 95° |
| 2026-04-28 19:54 | 40.71083 | 12.80119 | 30077 ft | 476 kts | 95° |
| 2026-04-28 19:54 | 40.70743 | 12.84460 | 29680 ft | 476 kts | 95° |
| 2026-04-28 19:54 | 40.70403 | 12.88806 | 29291 ft | 477 kts | 95° |
| 2026-04-28 19:55 | 40.70065 | 12.93150 | 28906 ft | 477 kts | 95° |
| 2026-04-28 19:55 | 40.69727 | 12.97499 | 28526 ft | 475 kts | 95° |
| 2026-04-28 19:55 | 40.69391 | 13.01816 | 28155 ft | 473 kts | 95° |
| 2026-04-28 19:55 | 40.69055 | 13.06113 | 27786 ft | 470 kts | 95° |
| 2026-04-28 19:56 | 40.68718 | 13.10383 | 27413 ft | 467 kts | 95° |
| 2026-04-28 19:56 | 40.68381 | 13.14624 | 27053 ft | 464 kts | 95° |
| 2026-04-28 19:56 | 40.68044 | 13.18835 | 26706 ft | 460 kts | 95° |
| 2026-04-28 19:56 | 40.67903 | 13.23019 | 26340 ft | 456 kts | 84° |
| 2026-04-28 19:57 | 40.68420 | 13.27046 | 25805 ft | 448 kts | 77° |
| 2026-04-28 19:57 | 40.69091 | 13.31034 | 25127 ft | 443 kts | 76° |
| 2026-04-28 19:57 | 40.69774 | 13.34970 | 24503 ft | 438 kts | 76° |
| 2026-04-28 19:57 | 40.70453 | 13.38810 | 24360 ft | 421 kts | 76° |
| 2026-04-28 19:58 | 40.71103 | 13.42488 | 24240 ft | 405 kts | 76° |
| 2026-04-28 19:58 | 40.71724 | 13.46046 | 24120 ft | 390 kts | 76° |
| 2026-04-28 19:58 | 40.72313 | 13.49456 | 23958 ft | 371 kts | 76° |
| 2026-04-28 19:58 | 40.72872 | 13.52713 | 23425 ft | 361 kts | 76° |
| 2026-04-28 19:59 | 40.73420 | 13.55923 | 23013 ft | 357 kts | 76° |
| 2026-04-28 19:59 | 40.73963 | 13.59099 | 22578 ft | 354 kts | 76° |
| 2026-04-28 19:59 | 40.74504 | 13.62253 | 22126 ft | 351 kts | 76° |
| 2026-04-28 19:59 | 40.75039 | 13.65385 | 21688 ft | 350 kts | 76° |
| 2026-04-28 20:00 | 40.75572 | 13.68513 | 21235 ft | 348 kts | 76° |
| 2026-04-28 20:00 | 40.76101 | 13.71622 | 20809 ft | 347 kts | 77° |
| 2026-04-28 20:00 | 40.76627 | 13.74721 | 20395 ft | 345 kts | 77° |
| 2026-04-28 20:00 | 40.77143 | 13.77762 | 19996 ft | 344 kts | 77° |
| 2026-04-28 20:01 | 40.77664 | 13.80833 | 19595 ft | 342 kts | 77° |
| 2026-04-28 20:01 | 40.78181 | 13.83886 | 19203 ft | 340 kts | 77° |
| 2026-04-28 20:01 | 40.78694 | 13.86927 | 18836 ft | 339 kts | 77° |
| 2026-04-28 20:01 | 40.79204 | 13.89955 | 18470 ft | 337 kts | 77° |
| 2026-04-28 20:02 | 40.79546 | 13.91997 | 18204 ft | 336 kts | 77° |
| 2026-04-28 20:02 | 40.80208 | 13.95968 | 17663 ft | 334 kts | 77° |
| 2026-04-28 20:02 | 40.80704 | 13.98951 | 17271 ft | 332 kts | 77° |
| 2026-04-28 20:02 | 40.81197 | 14.01916 | 16890 ft | 330 kts | 77° |
| 2026-04-28 20:03 | 40.81688 | 14.04865 | 16516 ft | 328 kts | 77° |
| 2026-04-28 20:03 | 40.82177 | 14.07802 | 16164 ft | 327 kts | 77° |
| 2026-04-28 20:03 | 40.82665 | 14.10722 | 15811 ft | 325 kts | 77° |
| 2026-04-28 20:03 | 40.83152 | 14.13631 | 15467 ft | 323 kts | 77° |
| 2026-04-28 20:04 | 40.83632 | 14.16493 | 15011 ft | 315 kts | 77° |
| 2026-04-28 20:04 | 40.83949 | 14.18380 | 14310 ft | 322 kts | 77° |
| 2026-04-28 20:04 | 40.84445 | 14.21340 | 13091 ft | 336 kts | 77° |
| 2026-04-28 20:04 | 40.84949 | 14.24372 | 12102 ft | 338 kts | 77° |
| 2026-04-28 20:05 | 40.85449 | 14.27391 | 11233 ft | 335 kts | 78° |
| 2026-04-28 20:05 | 40.85944 | 14.30377 | 10424 ft | 330 kts | 78° |
| 2026-04-28 20:05 | 40.86429 | 14.33316 | 9643 ft | 325 kts | 78° |
| 2026-04-28 20:05 | 40.86893 | 14.36114 | 9471 ft | 299 kts | 78° |
| 2026-04-28 20:06 | 40.87319 | 14.38692 | 9266 ft | 278 kts | 78° |
| 2026-04-28 20:06 | 40.87735 | 14.41213 | 8407 ft | 283 kts | 79° |
| 2026-04-28 20:06 | 40.88152 | 14.43751 | 7693 ft | 282 kts | 79° |
| 2026-04-28 20:06 | 40.88563 | 14.46269 | 7027 ft | 279 kts | 79° |
| 2026-04-28 20:07 | 40.88970 | 14.48767 | 6375 ft | 277 kts | 79° |
| 2026-04-28 20:07 | 40.89239 | 14.50403 | 5919 ft | 274 kts | 79° |
| 2026-04-28 20:07 | 40.90012 | 14.53574 | 4993 ft | 270 kts | 56° |
| 2026-04-28 20:07 | 40.91387 | 14.55126 | 4235 ft | 255 kts | 20° |
| 2026-04-28 20:08 | 40.93018 | 14.55467 | 3919 ft | 227 kts | 353° |
| 2026-04-28 20:08 | 40.94457 | 14.54834 | 3624 ft | 211 kts | 327° |
| 2026-04-28 20:08 | 40.95671 | 14.53832 | 3319 ft | 203 kts | 327° |
| 2026-04-28 20:08 | 40.96853 | 14.52864 | 2982 ft | 198 kts | 327° |
| 2026-04-28 20:09 | 40.97845 | 14.51666 | 2736 ft | 193 kts | 297° |
| 2026-04-28 20:09 | 40.98148 | 14.49978 | 2614 ft | 190 kts | 262° |
| 2026-04-28 20:09 | 40.97675 | 14.48378 | 2488 ft | 189 kts | 234° |
| 2026-04-28 20:09 | 40.96958 | 14.46912 | 2368 ft | 190 kts | 238° |
| 2026-04-28 20:10 | 40.96273 | 14.45418 | 2278 ft | 190 kts | 237° |
| 2026-04-28 20:10 | 40.95590 | 14.43950 | 2204 ft | 189 kts | 237° |
| 2026-04-28 20:10 | 40.94901 | 14.42478 | 2220 ft | 183 kts | 237° |
| 2026-04-28 20:10 | 40.94276 | 14.41142 | 2203 ft | 160 kts | 237° |
| 2026-04-28 20:11 | 40.93718 | 14.39954 | 2074 ft | 144 kts | 237° |
| 2026-04-28 20:11 | 40.93196 | 14.38842 | 1886 ft | 140 kts | 237° |
| 2026-04-28 20:11 | 40.92686 | 14.37757 | 1699 ft | 138 kts | 237° |
| 2026-04-28 20:11 | 40.92183 | 14.36685 | 1504 ft | 137 kts | 237° |
| 2026-04-28 20:12 | 40.91682 | 14.35620 | 1310 ft | 136 kts | 237° |
| 2026-04-28 20:12 | 40.91185 | 14.34560 | 1104 ft | 135 kts | 237° |
| 2026-04-28 20:12 | 40.90691 | 14.33512 | 905 ft | 134 kts | 237° |
| 2026-04-28 20:12 | 40.90199 | 14.32463 | 711 ft | 134 kts | 237° |
| 2026-04-28 20:13 | 40.89715 | 14.31432 | 509 ft | 133 kts | 238° |
| 2026-04-28 20:13 | 40.89226 | 14.30396 | 313 ft | 133 kts | 237° |
| 2026-04-28 20:13 | 40.88772 | 14.29436 | 258 ft | 104 kts | 238° |
| 2026-04-28 20:13 | 40.88482 | 14.28821 | 273 ft | 54 kts | 238° |
| 2026-04-28 20:14 | 40.88343 | 14.28532 | 280 ft | 32 kts | 233° |
| 2026-04-28 20:14 | 40.88181 | 14.28388 | 288 ft | 23 kts | 208° |
| 2026-04-28 20:14 | 40.88086 | 14.28322 | 287 ft | 2 kts | 204° |
| 2026-04-28 20:14 | 40.88083 | 14.28320 | 287 ft | 0 kts | 204° |
| 2026-04-28 20:15 | 40.88080 | 14.28319 | 287 ft | 0 kts | 195° |
| 2026-04-28 20:15 | 40.88067 | 14.28284 | 288 ft | 11 kts | 259° |
| 2026-04-28 20:15 | 40.88050 | 14.28197 | 295 ft | 7 kts | 239° |
| 2026-04-28 20:15 | 40.88028 | 14.28151 | 294 ft | 4 kts | 235° |
| 2026-04-28 20:16 | 40.88002 | 14.28130 | 296 ft | 6 kts | 196° |
| 2026-04-28 20:16 | 40.87970 | 14.28136 | 292 ft | 4 kts | 166° |
| 2026-04-28 20:16 | 40.87946 | 14.28145 | 295 ft | 4 kts | 164° |
| 2026-04-28 20:16 | 40.87909 | 14.28160 | 295 ft | 5 kts | 161° |
| 2026-04-28 20:17 | 40.87888 | 14.28167 | 294 ft | 0 kts | 163° |